sensor_id;sensor_type;location;lat;lon;timestamp;P1;durP1;ratioP1;P2;durP2;ratioP2
19579;SDS011;9936;51.040;13.918;2023-03-22T00:01:27;8.03;;;5.60;;
19579;SDS011;9936;51.040;13.918;2023-03-22T00:05:15;10.07;;;5.70;;
19579;SDS011;9936;51.040;13.918;2023-03-22T00:09:01;10.87;;;5.63;;
19579;SDS011;9936;51.040;13.918;2023-03-22T00:12:46;7.67;;;4.50;;
19579;SDS011;9936;51.040;13.918;2023-03-22T00:16:32;8.43;;;5.77;;
19579;SDS011;9936;51.040;13.918;2023-03-22T00:20:18;9.50;;;5.63;;
19579;SDS011;9936;51.040;13.918;2023-03-22T00:24:04;10.07;;;5.53;;
19579;SDS011;9936;51.040;13.918;2023-03-22T00:27:50;6.83;;;4.10;;
19579;SDS011;9936;51.040;13.918;2023-03-22T00:31:36;6.47;;;4.73;;
19579;SDS011;9936;51.040;13.918;2023-03-22T00:35:22;7.43;;;4.87;;
19579;SDS011;9936;51.040;13.918;2023-03-22T00:39:07;6.00;;;4.63;;
19579;SDS011;9936;51.040;13.918;2023-03-22T00:42:53;6.53;;;4.67;;
19579;SDS011;9936;51.040;13.918;2023-03-22T00:46:38;6.93;;;4.33;;
19579;SDS011;9936;51.040;13.918;2023-03-22T00:50:24;5.50;;;4.20;;
19579;SDS011;9936;51.040;13.918;2023-03-22T00:54:10;8.37;;;5.30;;
19579;SDS011;9936;51.040;13.918;2023-03-22T00:57:56;9.57;;;4.83;;
19579;SDS011;9936;51.040;13.918;2023-03-22T01:01:42;7.50;;;4.60;;
19579;SDS011;9936;51.040;13.918;2023-03-22T01:05:27;5.63;;;4.30;;
19579;SDS011;9936;51.040;13.918;2023-03-22T01:09:17;9.10;;;5.07;;
19579;SDS011;9936;51.040;13.918;2023-03-22T01:13:08;8.37;;;4.80;;
19579;SDS011;9936;51.040;13.918;2023-03-22T01:16:55;7.73;;;4.50;;
19579;SDS011;9936;51.040;13.918;2023-03-22T01:20:41;6.33;;;3.77;;
19579;SDS011;9936;51.040;13.918;2023-03-22T01:24:27;6.63;;;4.33;;
19579;SDS011;9936;51.040;13.918;2023-03-22T01:28:12;6.57;;;4.60;;
19579;SDS011;9936;51.040;13.918;2023-03-22T01:31:58;8.67;;;4.83;;
19579;SDS011;9936;51.040;13.918;2023-03-22T01:35:44;8.37;;;4.87;;
19579;SDS011;9936;51.040;13.918;2023-03-22T01:39:30;10.03;;;5.23;;
19579;SDS011;9936;51.040;13.918;2023-03-22T01:43:16;6.60;;;4.47;;
19579;SDS011;9936;51.040;13.918;2023-03-22T01:47:02;9.07;;;4.70;;
19579;SDS011;9936;51.040;13.918;2023-03-22T01:50:53;6.77;;;4.80;;
19579;SDS011;9936;51.040;13.918;2023-03-22T01:54:49;17.70;;;5.23;;
19579;SDS011;9936;51.040;13.918;2023-03-22T01:58:37;10.33;;;4.87;;
19579;SDS011;9936;51.040;13.918;2023-03-22T02:02:25;7.90;;;4.17;;
19579;SDS011;9936;51.040;13.918;2023-03-22T02:06:15;7.73;;;4.07;;
19579;SDS011;9936;51.040;13.918;2023-03-22T02:10:01;10.53;;;4.73;;
19579;SDS011;9936;51.040;13.918;2023-03-22T02:22:12;8.07;;;4.03;;
19579;SDS011;9936;51.040;13.918;2023-03-22T02:39:13;5.73;;;4.13;;
19579;SDS011;9936;51.040;13.918;2023-03-22T02:43:14;6.73;;;4.10;;
19579;SDS011;9936;51.040;13.918;2023-03-22T02:47:20;6.20;;;4.40;;
19579;SDS011;9936;51.040;13.918;2023-03-22T02:51:30;7.60;;;4.47;;
19579;SDS011;9936;51.040;13.918;2023-03-22T02:59:28;6.30;;;3.70;;
19579;SDS011;9936;51.040;13.918;2023-03-22T03:03:18;8.23;;;4.50;;
19579;SDS011;9936;51.040;13.918;2023-03-22T03:07:10;6.70;;;5.00;;
19579;SDS011;9936;51.040;13.918;2023-03-22T03:10:58;6.97;;;3.93;;
19579;SDS011;9936;51.040;13.918;2023-03-22T03:14:43;7.33;;;4.53;;
19579;SDS011;9936;51.040;13.918;2023-03-22T03:18:33;6.43;;;4.30;;
19579;SDS011;9936;51.040;13.918;2023-03-22T03:30:32;8.47;;;4.23;;
19579;SDS011;9936;51.040;13.918;2023-03-22T03:34:29;6.43;;;3.53;;
19579;SDS011;9936;51.040;13.918;2023-03-22T03:38:27;6.90;;;3.70;;
19579;SDS011;9936;51.040;13.918;2023-03-22T03:42:15;7.33;;;4.50;;
19579;SDS011;9936;51.040;13.918;2023-03-22T03:46:02;5.13;;;3.47;;
19579;SDS011;9936;51.040;13.918;2023-03-22T03:49:48;4.73;;;3.23;;
19579;SDS011;9936;51.040;13.918;2023-03-22T03:53:35;5.40;;;3.50;;
19579;SDS011;9936;51.040;13.918;2023-03-22T03:57:20;5.37;;;3.40;;
19579;SDS011;9936;51.040;13.918;2023-03-22T04:01:06;5.73;;;3.20;;
19579;SDS011;9936;51.040;13.918;2023-03-22T04:04:52;10.47;;;3.40;;
19579;SDS011;9936;51.040;13.918;2023-03-22T04:08:37;5.20;;;3.40;;
19579;SDS011;9936;51.040;13.918;2023-03-22T04:12:23;4.67;;;3.30;;
19579;SDS011;9936;51.040;13.918;2023-03-22T04:16:08;5.67;;;3.37;;
19579;SDS011;9936;51.040;13.918;2023-03-22T04:19:54;6.27;;;3.60;;
19579;SDS011;9936;51.040;13.918;2023-03-22T04:23:40;5.83;;;3.97;;
19579;SDS011;9936;51.040;13.918;2023-03-22T04:27:26;5.03;;;3.57;;
19579;SDS011;9936;51.040;13.918;2023-03-22T04:31:11;5.57;;;3.70;;
19579;SDS011;9936;51.040;13.918;2023-03-22T04:34:57;7.70;;;3.83;;
19579;SDS011;9936;51.040;13.918;2023-03-22T04:38:43;5.63;;;3.80;;
19579;SDS011;9936;51.040;13.918;2023-03-22T04:42:28;6.63;;;4.10;;
19579;SDS011;9936;51.040;13.918;2023-03-22T04:46:14;10.07;;;4.50;;
19579;SDS011;9936;51.040;13.918;2023-03-22T04:50:00;8.13;;;4.93;;
19579;SDS011;9936;51.040;13.918;2023-03-22T04:53:46;7.13;;;4.60;;
19579;SDS011;9936;51.040;13.918;2023-03-22T04:57:31;10.07;;;4.70;;
19579;SDS011;9936;51.040;13.918;2023-03-22T05:01:19;7.07;;;4.40;;
19579;SDS011;9936;51.040;13.918;2023-03-22T05:05:05;10.93;;;4.77;;
19579;SDS011;9936;51.040;13.918;2023-03-22T05:08:51;6.80;;;4.80;;
19579;SDS011;9936;51.040;13.918;2023-03-22T05:12:36;10.77;;;4.80;;
19579;SDS011;9936;51.040;13.918;2023-03-22T05:16:23;7.33;;;4.80;;
19579;SDS011;9936;51.040;13.918;2023-03-22T05:20:08;5.77;;;4.37;;
19579;SDS011;9936;51.040;13.918;2023-03-22T05:23:55;9.60;;;5.00;;
19579;SDS011;9936;51.040;13.918;2023-03-22T05:27:42;8.00;;;4.77;;
19579;SDS011;9936;51.040;13.918;2023-03-22T05:31:28;8.47;;;5.00;;
19579;SDS011;9936;51.040;13.918;2023-03-22T05:35:14;6.47;;;4.37;;
19579;SDS011;9936;51.040;13.918;2023-03-22T05:39:00;10.00;;;5.87;;
19579;SDS011;9936;51.040;13.918;2023-03-22T05:42:46;11.33;;;5.33;;
19579;SDS011;9936;51.040;13.918;2023-03-22T05:46:31;13.90;;;6.23;;
19579;SDS011;9936;51.040;13.918;2023-03-22T05:50:18;7.00;;;5.03;;
19579;SDS011;9936;51.040;13.918;2023-03-22T05:54:07;8.43;;;5.07;;
19579;SDS011;9936;51.040;13.918;2023-03-22T05:57:53;6.93;;;4.80;;
19579;SDS011;9936;51.040;13.918;2023-03-22T06:01:40;7.93;;;4.83;;
19579;SDS011;9936;51.040;13.918;2023-03-22T06:05:26;8.40;;;5.20;;
19579;SDS011;9936;51.040;13.918;2023-03-22T06:09:15;7.87;;;5.27;;
19579;SDS011;9936;51.040;13.918;2023-03-22T06:13:01;9.27;;;5.20;;
19579;SDS011;9936;51.040;13.918;2023-03-22T06:16:46;8.93;;;5.27;;
19579;SDS011;9936;51.040;13.918;2023-03-22T06:20:32;7.87;;;5.60;;
19579;SDS011;9936;51.040;13.918;2023-03-22T06:24:19;9.93;;;5.83;;
19579;SDS011;9936;51.040;13.918;2023-03-22T06:28:05;7.83;;;5.50;;
19579;SDS011;9936;51.040;13.918;2023-03-22T06:31:51;8.20;;;5.37;;
19579;SDS011;9936;51.040;13.918;2023-03-22T06:35:36;9.17;;;5.73;;
19579;SDS011;9936;51.040;13.918;2023-03-22T06:39:22;10.53;;;5.93;;
19579;SDS011;9936;51.040;13.918;2023-03-22T06:43:08;11.13;;;6.73;;
19579;SDS011;9936;51.040;13.918;2023-03-22T06:46:53;10.83;;;6.20;;
19579;SDS011;9936;51.040;13.918;2023-03-22T06:50:39;10.10;;;6.00;;
19579;SDS011;9936;51.040;13.918;2023-03-22T06:54:25;7.87;;;5.40;;
19579;SDS011;9936;51.040;13.918;2023-03-22T06:58:11;9.83;;;5.60;;
19579;SDS011;9936;51.040;13.918;2023-03-22T07:01:57;9.43;;;5.70;;
19579;SDS011;9936;51.040;13.918;2023-03-22T07:05:43;13.57;;;6.37;;
19579;SDS011;9936;51.040;13.918;2023-03-22T07:09:28;12.10;;;6.30;;
19579;SDS011;9936;51.040;13.918;2023-03-22T07:13:14;9.60;;;5.77;;
19579;SDS011;9936;51.040;13.918;2023-03-22T07:17:00;10.10;;;6.40;;
19579;SDS011;9936;51.040;13.918;2023-03-22T07:20:45;17.43;;;6.83;;
19579;SDS011;9936;51.040;13.918;2023-03-22T07:24:31;10.73;;;6.93;;
19579;SDS011;9936;51.040;13.918;2023-03-22T07:28:17;10.93;;;6.00;;
19579;SDS011;9936;51.040;13.918;2023-03-22T07:32:02;9.03;;;6.63;;
19579;SDS011;9936;51.040;13.918;2023-03-22T07:35:48;10.97;;;6.63;;
19579;SDS011;9936;51.040;13.918;2023-03-22T07:39:34;9.93;;;6.40;;
19579;SDS011;9936;51.040;13.918;2023-03-22T07:43:20;11.67;;;6.33;;
19579;SDS011;9936;51.040;13.918;2023-03-22T07:47:06;10.87;;;6.60;;
19579;SDS011;9936;51.040;13.918;2023-03-22T07:50:55;12.23;;;6.57;;
19579;SDS011;9936;51.040;13.918;2023-03-22T07:54:41;9.77;;;6.33;;
19579;SDS011;9936;51.040;13.918;2023-03-22T07:58:27;9.60;;;6.20;;
19579;SDS011;9936;51.040;13.918;2023-03-22T08:02:12;9.10;;;5.87;;
19579;SDS011;9936;51.040;13.918;2023-03-22T08:05:59;10.03;;;6.00;;
19579;SDS011;9936;51.040;13.918;2023-03-22T08:09:46;10.43;;;6.63;;
19579;SDS011;9936;51.040;13.918;2023-03-22T08:13:33;8.33;;;6.43;;
19579;SDS011;9936;51.040;13.918;2023-03-22T08:17:19;9.83;;;6.63;;
19579;SDS011;9936;51.040;13.918;2023-03-22T08:21:05;11.50;;;6.50;;
19579;SDS011;9936;51.040;13.918;2023-03-22T08:24:51;11.90;;;6.50;;
19579;SDS011;9936;51.040;13.918;2023-03-22T08:28:36;7.23;;;5.63;;
19579;SDS011;9936;51.040;13.918;2023-03-22T08:32:22;9.23;;;5.70;;
19579;SDS011;9936;51.040;13.918;2023-03-22T08:36:10;9.27;;;5.50;;
19579;SDS011;9936;51.040;13.918;2023-03-22T08:39:58;8.57;;;5.47;;
19579;SDS011;9936;51.040;13.918;2023-03-22T08:43:43;8.57;;;5.20;;
19579;SDS011;9936;51.040;13.918;2023-03-22T08:47:30;8.67;;;4.77;;
19579;SDS011;9936;51.040;13.918;2023-03-22T08:51:19;7.80;;;5.13;;
19579;SDS011;9936;51.040;13.918;2023-03-22T08:55:06;9.70;;;4.73;;
19579;SDS011;9936;51.040;13.918;2023-03-22T08:58:53;7.67;;;4.93;;
19579;SDS011;9936;51.040;13.918;2023-03-22T09:02:38;9.27;;;4.87;;
19579;SDS011;9936;51.040;13.918;2023-03-22T09:06:25;6.17;;;4.00;;
19579;SDS011;9936;51.040;13.918;2023-03-22T09:10:10;7.60;;;4.20;;
19579;SDS011;9936;51.040;13.918;2023-03-22T09:17:45;5.93;;;2.97;;
19579;SDS011;9936;51.040;13.918;2023-03-22T09:21:33;4.87;;;3.10;;
19579;SDS011;9936;51.040;13.918;2023-03-22T09:25:19;4.17;;;2.67;;
19579;SDS011;9936;51.040;13.918;2023-03-22T09:29:05;4.60;;;2.47;;
19579;SDS011;9936;51.040;13.918;2023-03-22T09:32:51;4.70;;;2.47;;
19579;SDS011;9936;51.040;13.918;2023-03-22T09:36:37;5.67;;;2.40;;
19579;SDS011;9936;51.040;13.918;2023-03-22T09:40:27;3.97;;;1.90;;
19579;SDS011;9936;51.040;13.918;2023-03-22T09:44:17;4.30;;;1.70;;
19579;SDS011;9936;51.040;13.918;2023-03-22T09:52:27;5.33;;;2.10;;
19579;SDS011;9936;51.040;13.918;2023-03-22T09:56:20;3.77;;;1.97;;
19579;SDS011;9936;51.040;13.918;2023-03-22T10:04:04;3.87;;;2.07;;
19579;SDS011;9936;51.040;13.918;2023-03-22T10:11:57;2.47;;;1.20;;
19579;SDS011;9936;51.040;13.918;2023-03-22T10:15:56;3.83;;;1.30;;
19579;SDS011;9936;51.040;13.918;2023-03-22T10:19:52;1.90;;;1.23;;
19579;SDS011;9936;51.040;13.918;2023-03-22T10:23:56;5.10;;;2.40;;
19579;SDS011;9936;51.040;13.918;2023-03-22T10:27:45;3.13;;;1.20;;
19579;SDS011;9936;51.040;13.918;2023-03-22T10:31:33;4.90;;;1.50;;
19579;SDS011;9936;51.040;13.918;2023-03-22T10:35:18;2.77;;;1.30;;
19579;SDS011;9936;51.040;13.918;2023-03-22T10:39:50;2.40;;;1.20;;
19579;SDS011;9936;51.040;13.918;2023-03-22T10:43:20;3.10;;;1.10;;
19579;SDS011;9936;51.040;13.918;2023-03-22T10:47:18;2.43;;;1.17;;
19579;SDS011;9936;51.040;13.918;2023-03-22T10:51:22;2.13;;;1.53;;
19579;SDS011;9936;51.040;13.918;2023-03-22T10:55:13;2.30;;;1.30;;
19579;SDS011;9936;51.040;13.918;2023-03-22T10:59:01;1.70;;;1.20;;
19579;SDS011;9936;51.040;13.918;2023-03-22T11:02:50;2.63;;;1.20;;
19579;SDS011;9936;51.040;13.918;2023-03-22T11:06:47;2.97;;;1.33;;
19579;SDS011;9936;51.040;13.918;2023-03-22T11:10:37;3.53;;;0.90;;
19579;SDS011;9936;51.040;13.918;2023-03-22T11:14:32;5.90;;;0.97;;
19579;SDS011;9936;51.040;13.918;2023-03-22T11:18:29;2.47;;;0.80;;
19579;SDS011;9936;51.040;13.918;2023-03-22T11:26:16;1.40;;;1.10;;
19579;SDS011;9936;51.040;13.918;2023-03-22T11:30:18;2.83;;;1.10;;
19579;SDS011;9936;51.040;13.918;2023-03-22T11:34:13;1.40;;;1.10;;
19579;SDS011;9936;51.040;13.918;2023-03-22T11:38:01;3.03;;;1.10;;
19579;SDS011;9936;51.040;13.918;2023-03-22T11:41:48;1.70;;;1.00;;
19579;SDS011;9936;51.040;13.918;2023-03-22T11:45:34;1.17;;;0.73;;
19579;SDS011;9936;51.040;13.918;2023-03-22T11:49:22;2.53;;;1.30;;
19579;SDS011;9936;51.040;13.918;2023-03-22T11:53:17;2.97;;;1.07;;
19579;SDS011;9936;51.040;13.918;2023-03-22T11:57:08;2.40;;;1.10;;
19579;SDS011;9936;51.040;13.918;2023-03-22T12:00:59;1.67;;;0.97;;
19579;SDS011;9936;51.040;13.918;2023-03-22T12:04:47;1.83;;;0.90;;
19579;SDS011;9936;51.040;13.918;2023-03-22T12:08:53;3.50;;;1.47;;
19579;SDS011;9936;51.040;13.918;2023-03-22T12:12:48;1.43;;;0.93;;
19579;SDS011;9936;51.040;13.918;2023-03-22T12:17:00;1.40;;;1.13;;
19579;SDS011;9936;51.040;13.918;2023-03-22T12:21:10;2.70;;;1.00;;
19579;SDS011;9936;51.040;13.918;2023-03-22T12:24:57;2.87;;;1.10;;
19579;SDS011;9936;51.040;13.918;2023-03-22T12:32:37;3.60;;;2.63;;
19579;SDS011;9936;51.040;13.918;2023-03-22T12:36:33;4.18;;;2.63;;
19579;SDS011;9936;51.040;13.918;2023-03-22T12:40:27;4.40;;;2.72;;
19579;SDS011;9936;51.040;13.918;2023-03-22T12:52:14;2.33;;;1.63;;
19579;SDS011;9936;51.040;13.918;2023-03-22T12:56:12;1.75;;;0.95;;
19579;SDS011;9936;51.040;13.918;2023-03-22T13:00:03;1.30;;;0.80;;
19579;SDS011;9936;51.040;13.918;2023-03-22T13:03:57;0.88;;;0.80;;
19579;SDS011;9936;51.040;13.918;2023-03-22T13:11:31;3.20;;;0.80;;
19579;SDS011;9936;51.040;13.918;2023-03-22T13:15:28;1.73;;;1.00;;
19579;SDS011;9936;51.040;13.918;2023-03-22T13:19:25;2.75;;;1.00;;
19579;SDS011;9936;51.040;13.918;2023-03-22T13:23:24;5.05;;;0.90;;
19579;SDS011;9936;51.040;13.918;2023-03-22T13:27:11;2.08;;;1.00;;
19579;SDS011;9936;51.040;13.918;2023-03-22T13:30:58;1.20;;;1.10;;
19579;SDS011;9936;51.040;13.918;2023-03-22T13:34:46;2.30;;;0.90;;
19579;SDS011;9936;51.040;13.918;2023-03-22T13:38:40;3.15;;;1.85;;
19579;SDS011;9936;51.040;13.918;2023-03-22T13:42:39;2.78;;;1.00;;
19579;SDS011;9936;51.040;13.918;2023-03-22T13:46:27;2.35;;;1.10;;
19579;SDS011;9936;51.040;13.918;2023-03-22T13:50:29;1.73;;;1.20;;
19579;SDS011;9936;51.040;13.918;2023-03-22T13:54:19;1.60;;;0.90;;
19579;SDS011;9936;51.040;13.918;2023-03-22T14:06:17;1.23;;;1.08;;
19579;SDS011;9936;51.040;13.918;2023-03-22T14:10:15;3.43;;;0.93;;
19579;SDS011;9936;51.040;13.918;2023-03-22T14:14:09;1.50;;;1.13;;
19579;SDS011;9936;51.040;13.918;2023-03-22T14:21:49;2.10;;;1.20;;
19579;SDS011;9936;51.040;13.918;2023-03-22T14:25:39;6.17;;;1.27;;
19579;SDS011;9936;51.040;13.918;2023-03-22T14:29:38;7.07;;;4.90;;
19579;SDS011;9936;51.040;13.918;2023-03-22T14:33:28;5.82;;;3.25;;
19579;SDS011;9936;51.040;13.918;2023-03-22T14:37:16;3.72;;;1.40;;
19579;SDS011;9936;51.040;13.918;2023-03-22T14:44:52;2.80;;;1.40;;
19579;SDS011;9936;51.040;13.918;2023-03-22T14:48:41;4.28;;;1.35;;
19579;SDS011;9936;51.040;13.918;2023-03-22T14:52:33;5.03;;;1.50;;
19579;SDS011;9936;51.040;13.918;2023-03-22T14:56:22;5.82;;;1.25;;
19579;SDS011;9936;51.040;13.918;2023-03-22T15:00:13;1.90;;;1.63;;
19579;SDS011;9936;51.040;13.918;2023-03-22T15:04:03;3.20;;;1.30;;
19579;SDS011;9936;51.040;13.918;2023-03-22T15:07:53;2.17;;;1.40;;
19579;SDS011;9936;51.040;13.918;2023-03-22T15:11:50;8.02;;;5.63;;
19579;SDS011;9936;51.040;13.918;2023-03-22T15:15:42;40.15;;;23.95;;
19579;SDS011;9936;51.040;13.918;2023-03-22T15:19:32;20.50;;;12.88;;
19579;SDS011;9936;51.040;13.918;2023-03-22T15:23:33;6.70;;;3.17;;
19579;SDS011;9936;51.040;13.918;2023-03-22T15:27:23;8.73;;;1.98;;
19579;SDS011;9936;51.040;13.918;2023-03-22T15:31:28;5.00;;;1.58;;
19579;SDS011;9936;51.040;13.918;2023-03-22T15:35:25;2.53;;;1.50;;
19579;SDS011;9936;51.040;13.918;2023-03-22T15:39:53;2.10;;;1.20;;
19579;SDS011;9936;51.040;13.918;2023-03-22T15:43:32;1.35;;;1.00;;
19579;SDS011;9936;51.040;13.918;2023-03-22T15:47:23;4.45;;;2.97;;
19579;SDS011;9936;51.040;13.918;2023-03-22T15:51:12;4.78;;;1.30;;
19579;SDS011;9936;51.040;13.918;2023-03-22T15:55:11;9.27;;;2.00;;
19579;SDS011;9936;51.040;13.918;2023-03-22T15:58:59;2.55;;;1.88;;
19579;SDS011;9936;51.040;13.918;2023-03-22T16:06:45;5.80;;;1.35;;
19579;SDS011;9936;51.040;13.918;2023-03-22T16:10:32;3.17;;;2.70;;
19579;SDS011;9936;51.040;13.918;2023-03-22T16:14:19;2.53;;;1.70;;
19579;SDS011;9936;51.040;13.918;2023-03-22T16:18:07;3.53;;;2.67;;
19579;SDS011;9936;51.040;13.918;2023-03-22T16:21:58;7.65;;;2.95;;
19579;SDS011;9936;51.040;13.918;2023-03-22T16:25:46;6.00;;;2.70;;
19579;SDS011;9936;51.040;13.918;2023-03-22T16:29:32;2.63;;;2.40;;
19579;SDS011;9936;51.040;13.918;2023-03-22T16:33:18;5.68;;;3.47;;
19579;SDS011;9936;51.040;13.918;2023-03-22T16:37:15;6.35;;;3.30;;
19579;SDS011;9936;51.040;13.918;2023-03-22T16:41:21;5.35;;;3.50;;
19579;SDS011;9936;51.040;13.918;2023-03-22T16:49:10;3.28;;;1.50;;
19579;SDS011;9936;51.040;13.918;2023-03-22T16:52:55;3.35;;;1.27;;
19579;SDS011;9936;51.040;13.918;2023-03-22T16:56:41;6.50;;;1.80;;
19579;SDS011;9936;51.040;13.918;2023-03-22T17:00:29;5.68;;;2.25;;
19579;SDS011;9936;51.040;13.918;2023-03-22T17:04:14;8.35;;;2.00;;
19579;SDS011;9936;51.040;13.918;2023-03-22T17:08:00;5.13;;;1.50;;
19579;SDS011;9936;51.040;13.918;2023-03-22T17:11:46;3.10;;;1.52;;
19579;SDS011;9936;51.040;13.918;2023-03-22T17:15:33;5.95;;;1.30;;
19579;SDS011;9936;51.040;13.918;2023-03-22T17:19:20;1.90;;;1.25;;
19579;SDS011;9936;51.040;13.918;2023-03-22T17:23:07;5.72;;;1.70;;
19579;SDS011;9936;51.040;13.918;2023-03-22T17:26:54;7.38;;;1.45;;
19579;SDS011;9936;51.040;13.918;2023-03-22T17:30:40;2.63;;;1.58;;
19579;SDS011;9936;51.040;13.918;2023-03-22T17:34:26;2.65;;;1.30;;
19579;SDS011;9936;51.040;13.918;2023-03-22T17:38:12;6.88;;;1.25;;
19579;SDS011;9936;51.040;13.918;2023-03-22T17:41:57;3.00;;;1.50;;
19579;SDS011;9936;51.040;13.918;2023-03-22T17:45:43;4.03;;;1.70;;
19579;SDS011;9936;51.040;13.918;2023-03-22T17:49:29;2.20;;;1.70;;
19579;SDS011;9936;51.040;13.918;2023-03-22T17:53:16;3.42;;;2.08;;
19579;SDS011;9936;51.040;13.918;2023-03-22T17:57:03;11.95;;;7.80;;
19579;SDS011;9936;51.040;13.918;2023-03-22T18:00:49;16.17;;;7.20;;
19579;SDS011;9936;51.040;13.918;2023-03-22T18:04:35;8.30;;;5.28;;
19579;SDS011;9936;51.040;13.918;2023-03-22T18:08:20;6.38;;;3.03;;
19579;SDS011;9936;51.040;13.918;2023-03-22T18:12:06;2.13;;;1.65;;
19579;SDS011;9936;51.040;13.918;2023-03-22T18:15:52;5.07;;;2.15;;
19579;SDS011;9936;51.040;13.918;2023-03-22T18:19:37;2.08;;;1.40;;
19579;SDS011;9936;51.040;13.918;2023-03-22T18:23:23;2.67;;;2.15;;
19579;SDS011;9936;51.040;13.918;2023-03-22T18:27:09;3.15;;;1.50;;
19579;SDS011;9936;51.040;13.918;2023-03-22T18:30:55;2.90;;;1.53;;
19579;SDS011;9936;51.040;13.918;2023-03-22T18:34:41;1.80;;;1.50;;
19579;SDS011;9936;51.040;13.918;2023-03-22T18:38:26;3.33;;;1.60;;
19579;SDS011;9936;51.040;13.918;2023-03-22T18:42:12;3.10;;;1.73;;
19579;SDS011;9936;51.040;13.918;2023-03-22T18:45:58;2.75;;;1.80;;
19579;SDS011;9936;51.040;13.918;2023-03-22T18:49:43;4.00;;;1.90;;
19579;SDS011;9936;51.040;13.918;2023-03-22T18:53:32;2.00;;;1.60;;
19579;SDS011;9936;51.040;13.918;2023-03-22T18:57:19;2.50;;;1.77;;
19579;SDS011;9936;51.040;13.918;2023-03-22T19:01:04;2.40;;;1.60;;
19579;SDS011;9936;51.040;13.918;2023-03-22T19:04:51;5.47;;;2.57;;
19579;SDS011;9936;51.040;13.918;2023-03-22T19:08:37;4.22;;;1.58;;
19579;SDS011;9936;51.040;13.918;2023-03-22T19:12:23;5.43;;;1.80;;
19579;SDS011;9936;51.040;13.918;2023-03-22T19:16:11;3.50;;;1.67;;
19579;SDS011;9936;51.040;13.918;2023-03-22T19:19:59;2.13;;;1.40;;
19579;SDS011;9936;51.040;13.918;2023-03-22T19:23:45;3.97;;;1.60;;
19579;SDS011;9936;51.040;13.918;2023-03-22T19:27:31;2.17;;;1.33;;
19579;SDS011;9936;51.040;13.918;2023-03-22T19:31:16;1.73;;;1.47;;
19579;SDS011;9936;51.040;13.918;2023-03-22T19:35:02;4.60;;;1.80;;
19579;SDS011;9936;51.040;13.918;2023-03-22T19:38:48;3.23;;;2.03;;
19579;SDS011;9936;51.040;13.918;2023-03-22T19:42:43;3.17;;;2.00;;
19579;SDS011;9936;51.040;13.918;2023-03-22T19:46:29;3.17;;;1.70;;
19579;SDS011;9936;51.040;13.918;2023-03-22T19:50:15;3.87;;;1.90;;
19579;SDS011;9936;51.040;13.918;2023-03-22T19:54:01;2.30;;;1.73;;
19579;SDS011;9936;51.040;13.918;2023-03-22T19:57:46;2.60;;;1.90;;
19579;SDS011;9936;51.040;13.918;2023-03-22T20:01:33;8.30;;;2.20;;
19579;SDS011;9936;51.040;13.918;2023-03-22T20:05:19;6.37;;;3.63;;
19579;SDS011;9936;51.040;13.918;2023-03-22T20:09:05;8.77;;;3.27;;
19579;SDS011;9936;51.040;13.918;2023-03-22T20:12:51;6.93;;;3.57;;
19579;SDS011;9936;51.040;13.918;2023-03-22T20:16:36;19.50;;;8.03;;
19579;SDS011;9936;51.040;13.918;2023-03-22T20:20:23;8.97;;;3.70;;
19579;SDS011;9936;51.040;13.918;2023-03-22T20:24:09;5.37;;;3.20;;
19579;SDS011;9936;51.040;13.918;2023-03-22T20:27:55;3.97;;;2.03;;
19579;SDS011;9936;51.040;13.918;2023-03-22T20:31:41;3.23;;;1.83;;
19579;SDS011;9936;51.040;13.918;2023-03-22T20:35:26;4.17;;;1.97;;
19579;SDS011;9936;51.040;13.918;2023-03-22T20:39:12;2.27;;;1.60;;
19579;SDS011;9936;51.040;13.918;2023-03-22T20:42:57;4.47;;;1.90;;
19579;SDS011;9936;51.040;13.918;2023-03-22T20:46:43;3.80;;;1.93;;
19579;SDS011;9936;51.040;13.918;2023-03-22T20:50:29;4.67;;;1.40;;
19579;SDS011;9936;51.040;13.918;2023-03-22T20:54:15;3.67;;;1.70;;
19579;SDS011;9936;51.040;13.918;2023-03-22T20:58:01;3.97;;;1.67;;
19579;SDS011;9936;51.040;13.918;2023-03-22T21:01:47;5.67;;;1.70;;
19579;SDS011;9936;51.040;13.918;2023-03-22T21:05:35;3.00;;;1.97;;
19579;SDS011;9936;51.040;13.918;2023-03-22T21:09:21;4.57;;;1.60;;
19579;SDS011;9936;51.040;13.918;2023-03-22T21:13:07;2.73;;;1.53;;
19579;SDS011;9936;51.040;13.918;2023-03-22T21:16:54;1.83;;;1.57;;
19579;SDS011;9936;51.040;13.918;2023-03-22T21:20:40;3.10;;;1.77;;
19579;SDS011;9936;51.040;13.918;2023-03-22T21:24:25;2.20;;;1.53;;
19579;SDS011;9936;51.040;13.918;2023-03-22T21:28:11;2.03;;;1.37;;
19579;SDS011;9936;51.040;13.918;2023-03-22T21:31:57;3.03;;;1.37;;
19579;SDS011;9936;51.040;13.918;2023-03-22T21:35:43;3.70;;;1.23;;
19579;SDS011;9936;51.040;13.918;2023-03-22T21:39:30;2.33;;;1.47;;
19579;SDS011;9936;51.040;13.918;2023-03-22T21:43:16;4.23;;;1.13;;
19579;SDS011;9936;51.040;13.918;2023-03-22T21:47:05;2.13;;;1.23;;
19579;SDS011;9936;51.040;13.918;2023-03-22T21:50:51;4.85;;;2.72;;
19579;SDS011;9936;51.040;13.918;2023-03-22T21:54:37;5.10;;;2.03;;
19579;SDS011;9936;51.040;13.918;2023-03-22T21:58:23;3.97;;;2.30;;
19579;SDS011;9936;51.040;13.918;2023-03-22T22:02:09;3.07;;;1.50;;
19579;SDS011;9936;51.040;13.918;2023-03-22T22:06:01;3.17;;;1.60;;
19579;SDS011;9936;51.040;13.918;2023-03-22T22:09:47;2.27;;;1.43;;
19579;SDS011;9936;51.040;13.918;2023-03-22T22:13:33;1.33;;;1.23;;
19579;SDS011;9936;51.040;13.918;2023-03-22T22:17:20;2.80;;;1.37;;
19579;SDS011;9936;51.040;13.918;2023-03-22T22:21:09;2.57;;;1.30;;
19579;SDS011;9936;51.040;13.918;2023-03-22T22:24:57;2.20;;;1.30;;
19579;SDS011;9936;51.040;13.918;2023-03-22T22:28:45;7.67;;;1.57;;
19579;SDS011;9936;51.040;13.918;2023-03-22T22:32:33;2.47;;;1.30;;
19579;SDS011;9936;51.040;13.918;2023-03-22T22:36:20;1.97;;;1.43;;
19579;SDS011;9936;51.040;13.918;2023-03-22T22:40:07;2.20;;;1.40;;
19579;SDS011;9936;51.040;13.918;2023-03-22T22:43:58;1.63;;;1.40;;
19579;SDS011;9936;51.040;13.918;2023-03-22T22:47:44;3.03;;;1.40;;
19579;SDS011;9936;51.040;13.918;2023-03-22T22:51:30;2.10;;;1.30;;
19579;SDS011;9936;51.040;13.918;2023-03-22T22:55:15;2.60;;;1.27;;
19579;SDS011;9936;51.040;13.918;2023-03-22T22:59:02;2.10;;;1.07;;
19579;SDS011;9936;51.040;13.918;2023-03-22T23:02:48;4.50;;;1.40;;
19579;SDS011;9936;51.040;13.918;2023-03-22T23:06:33;3.27;;;1.50;;
19579;SDS011;9936;51.040;13.918;2023-03-22T23:10:19;3.23;;;1.00;;
19579;SDS011;9936;51.040;13.918;2023-03-22T23:14:06;2.53;;;1.53;;
19579;SDS011;9936;51.040;13.918;2023-03-22T23:17:51;2.47;;;1.30;;
19579;SDS011;9936;51.040;13.918;2023-03-22T23:21:37;4.20;;;1.33;;
19579;SDS011;9936;51.040;13.918;2023-03-22T23:25:34;3.27;;;1.30;;
19579;SDS011;9936;51.040;13.918;2023-03-22T23:29:20;2.90;;;1.57;;
19579;SDS011;9936;51.040;13.918;2023-03-22T23:33:06;2.40;;;1.33;;
19579;SDS011;9936;51.040;13.918;2023-03-22T23:36:51;2.47;;;1.30;;
19579;SDS011;9936;51.040;13.918;2023-03-22T23:40:38;2.40;;;1.60;;
19579;SDS011;9936;51.040;13.918;2023-03-22T23:44:23;6.20;;;1.60;;
19579;SDS011;9936;51.040;13.918;2023-03-22T23:48:10;2.27;;;1.47;;
19579;SDS011;9936;51.040;13.918;2023-03-22T23:51:56;3.27;;;1.50;;
19579;SDS011;9936;51.040;13.918;2023-03-22T23:55:41;2.93;;;1.70;;
19579;SDS011;9936;51.040;13.918;2023-03-22T23:59:27;2.57;;;1.67;;
